sensor_id;sensor_type;location;lat;lon;timestamp;P1;durP1;ratioP1;P2;durP2;ratioP2
51810;SDS011;52468;40.116;18.296;2023-01-08T00:01:17;85.27;;;42.33;;
51810;SDS011;52468;40.116;18.296;2023-01-08T00:03:45;78.77;;;38.97;;
51810;SDS011;52468;40.116;18.296;2023-01-08T00:06:14;79.77;;;39.10;;
51810;SDS011;52468;40.116;18.296;2023-01-08T00:08:44;71.67;;;36.47;;
51810;SDS011;52468;40.116;18.296;2023-01-08T00:11:12;56.63;;;32.80;;
51810;SDS011;52468;40.116;18.296;2023-01-08T00:13:41;58.77;;;36.20;;
51810;SDS011;52468;40.116;18.296;2023-01-08T00:16:12;65.83;;;35.13;;
51810;SDS011;52468;40.116;18.296;2023-01-08T00:21:10;58.37;;;33.00;;
51810;SDS011;52468;40.116;18.296;2023-01-08T00:23:39;56.27;;;32.43;;
51810;SDS011;52468;40.116;18.296;2023-01-08T00:26:07;67.93;;;33.63;;
51810;SDS011;52468;40.116;18.296;2023-01-08T00:28:36;57.60;;;31.87;;
51810;SDS011;52468;40.116;18.296;2023-01-08T00:31:09;59.07;;;30.77;;
51810;SDS011;52468;40.116;18.296;2023-01-08T00:33:39;54.47;;;33.63;;
51810;SDS011;52468;40.116;18.296;2023-01-08T00:36:14;63.70;;;32.60;;
51810;SDS011;52468;40.116;18.296;2023-01-08T00:38:44;58.33;;;31.20;;
51810;SDS011;52468;40.116;18.296;2023-01-08T00:41:13;59.90;;;34.13;;
51810;SDS011;52468;40.116;18.296;2023-01-08T00:43:42;68.70;;;35.77;;
51810;SDS011;52468;40.116;18.296;2023-01-08T00:46:10;62.10;;;32.03;;
51810;SDS011;52468;40.116;18.296;2023-01-08T00:48:38;56.80;;;30.40;;
51810;SDS011;52468;40.116;18.296;2023-01-08T00:51:06;59.37;;;33.33;;
51810;SDS011;52468;40.116;18.296;2023-01-08T00:53:35;65.30;;;33.93;;
51810;SDS011;52468;40.116;18.296;2023-01-08T00:56:07;70.27;;;34.17;;
51810;SDS011;52468;40.116;18.296;2023-01-08T00:58:36;63.07;;;33.60;;
51810;SDS011;52468;40.116;18.296;2023-01-08T01:01:11;66.70;;;32.17;;
51810;SDS011;52468;40.116;18.296;2023-01-08T01:03:40;58.50;;;32.00;;
51810;SDS011;52468;40.116;18.296;2023-01-08T01:06:09;57.63;;;32.37;;
51810;SDS011;52468;40.116;18.296;2023-01-08T01:08:38;56.17;;;33.70;;
51810;SDS011;52468;40.116;18.296;2023-01-08T01:11:11;62.33;;;32.37;;
51810;SDS011;52468;40.116;18.296;2023-01-08T01:13:58;63.00;;;34.80;;
51810;SDS011;52468;40.116;18.296;2023-01-08T01:16:26;62.13;;;33.77;;
51810;SDS011;52468;40.116;18.296;2023-01-08T01:18:54;68.07;;;33.90;;
51810;SDS011;52468;40.116;18.296;2023-01-08T01:21:24;72.20;;;33.07;;
51810;SDS011;52468;40.116;18.296;2023-01-08T01:24:00;73.60;;;35.10;;
51810;SDS011;52468;40.116;18.296;2023-01-08T01:26:29;91.27;;;35.57;;
51810;SDS011;52468;40.116;18.296;2023-01-08T01:28:58;64.33;;;33.27;;
51810;SDS011;52468;40.116;18.296;2023-01-08T01:31:27;68.90;;;33.43;;
51810;SDS011;52468;40.116;18.296;2023-01-08T01:33:56;60.23;;;31.63;;
51810;SDS011;52468;40.116;18.296;2023-01-08T01:36:25;63.97;;;31.70;;
51810;SDS011;52468;40.116;18.296;2023-01-08T01:38:54;61.97;;;31.30;;
51810;SDS011;52468;40.116;18.296;2023-01-08T01:47:00;79.00;;;39.43;;
51810;SDS011;52468;40.116;18.296;2023-01-08T01:49:32;81.07;;;42.57;;
51810;SDS011;52468;40.116;18.296;2023-01-08T01:52:00;75.77;;;42.97;;
51810;SDS011;52468;40.116;18.296;2023-01-08T01:54:31;72.93;;;42.30;;
51810;SDS011;52468;40.116;18.296;2023-01-08T01:57:02;81.03;;;44.83;;
51810;SDS011;52468;40.116;18.296;2023-01-08T01:59:30;94.07;;;44.90;;
51810;SDS011;52468;40.116;18.296;2023-01-08T02:01:58;107.20;;;44.00;;
51810;SDS011;52468;40.116;18.296;2023-01-08T02:04:27;78.50;;;37.23;;
51810;SDS011;52468;40.116;18.296;2023-01-08T02:09:42;64.00;;;32.70;;
51810;SDS011;52468;40.116;18.296;2023-01-08T02:12:17;59.50;;;30.70;;
51810;SDS011;52468;40.116;18.296;2023-01-08T02:20:10;50.27;;;28.03;;
51810;SDS011;52468;40.116;18.296;2023-01-08T02:22:46;51.40;;;27.53;;
51810;SDS011;52468;40.116;18.296;2023-01-08T02:28:20;41.90;;;27.23;;
51810;SDS011;52468;40.116;18.296;2023-01-08T02:30:49;56.40;;;28.47;;
51810;SDS011;52468;40.116;18.296;2023-01-08T02:33:17;64.57;;;32.37;;
51810;SDS011;52468;40.116;18.296;2023-01-08T02:35:47;68.73;;;32.13;;
51810;SDS011;52468;40.116;18.296;2023-01-08T02:38:20;61.73;;;33.83;;
51810;SDS011;52468;40.116;18.296;2023-01-08T02:40:56;64.93;;;31.43;;
51810;SDS011;52468;40.116;18.296;2023-01-08T02:46:04;53.75;;;27.25;;
51810;SDS011;52468;40.116;18.296;2023-01-08T02:51:13;58.85;;;31.90;;
51810;SDS011;52468;40.116;18.296;2023-01-08T02:53:50;57.47;;;29.27;;
51810;SDS011;52468;40.116;18.296;2023-01-08T02:56:28;66.77;;;32.00;;
51810;SDS011;52468;40.116;18.296;2023-01-08T02:59:00;65.93;;;34.03;;
51810;SDS011;52468;40.116;18.296;2023-01-08T03:01:31;63.23;;;29.30;;
51810;SDS011;52468;40.116;18.296;2023-01-08T03:04:03;61.33;;;28.50;;
51810;SDS011;52468;40.116;18.296;2023-01-08T03:06:37;52.07;;;26.83;;
51810;SDS011;52468;40.116;18.296;2023-01-08T03:09:06;52.90;;;26.03;;
51810;SDS011;52468;40.116;18.296;2023-01-08T03:11:53;80.37;;;28.00;;
51810;SDS011;52468;40.116;18.296;2023-01-08T03:14:30;59.03;;;26.43;;
51810;SDS011;52468;40.116;18.296;2023-01-08T03:17:22;53.93;;;25.13;;
51810;SDS011;52468;40.116;18.296;2023-01-08T03:20:01;47.75;;;21.90;;
51810;SDS011;52468;40.116;18.296;2023-01-08T03:22:34;79.67;;;26.67;;
51810;SDS011;52468;40.116;18.296;2023-01-08T03:25:05;52.23;;;24.03;;
51810;SDS011;52468;40.116;18.296;2023-01-08T03:27:38;36.17;;;24.30;;
51810;SDS011;52468;40.116;18.296;2023-01-08T03:30:10;45.37;;;21.57;;
51810;SDS011;52468;40.116;18.296;2023-01-08T03:32:40;54.83;;;23.90;;
51810;SDS011;52468;40.116;18.296;2023-01-08T03:35:11;54.87;;;24.40;;
51810;SDS011;52468;40.116;18.296;2023-01-08T03:37:44;53.60;;;24.90;;
51810;SDS011;52468;40.116;18.296;2023-01-08T03:40:25;53.17;;;24.40;;
51810;SDS011;52468;40.116;18.296;2023-01-08T03:43:14;42.80;;;23.00;;
51810;SDS011;52468;40.116;18.296;2023-01-08T03:45:49;48.77;;;22.83;;
51810;SDS011;52468;40.116;18.296;2023-01-08T03:48:21;44.93;;;21.80;;
51810;SDS011;52468;40.116;18.296;2023-01-08T03:50:51;52.10;;;23.60;;
51810;SDS011;52468;40.116;18.296;2023-01-08T03:53:19;59.90;;;25.07;;
51810;SDS011;52468;40.116;18.296;2023-01-08T03:55:46;60.80;;;30.57;;
51810;SDS011;52468;40.116;18.296;2023-01-08T03:58:14;65.53;;;31.70;;
51810;SDS011;52468;40.116;18.296;2023-01-08T04:00:42;54.93;;;26.90;;
51810;SDS011;52468;40.116;18.296;2023-01-08T04:03:10;62.30;;;29.90;;
51810;SDS011;52468;40.116;18.296;2023-01-08T04:05:38;51.07;;;27.10;;
51810;SDS011;52468;40.116;18.296;2023-01-08T04:08:06;53.30;;;27.57;;
51810;SDS011;52468;40.116;18.296;2023-01-08T04:10:34;43.50;;;24.40;;
51810;SDS011;52468;40.116;18.296;2023-01-08T04:13:02;38.10;;;22.53;;
51810;SDS011;52468;40.116;18.296;2023-01-08T04:15:30;36.77;;;20.87;;
51810;SDS011;52468;40.116;18.296;2023-01-08T04:17:57;38.43;;;20.53;;
51810;SDS011;52468;40.116;18.296;2023-01-08T04:20:25;45.73;;;23.00;;
51810;SDS011;52468;40.116;18.296;2023-01-08T04:22:53;45.77;;;21.67;;
51810;SDS011;52468;40.116;18.296;2023-01-08T04:25:21;40.10;;;23.30;;
51810;SDS011;52468;40.116;18.296;2023-01-08T04:27:49;42.07;;;23.37;;
51810;SDS011;52468;40.116;18.296;2023-01-08T04:30:17;46.67;;;21.53;;
51810;SDS011;52468;40.116;18.296;2023-01-08T04:32:44;50.43;;;26.30;;
51810;SDS011;52468;40.116;18.296;2023-01-08T04:35:12;48.40;;;24.10;;
51810;SDS011;52468;40.116;18.296;2023-01-08T04:37:40;52.30;;;24.50;;
51810;SDS011;52468;40.116;18.296;2023-01-08T04:40:08;43.50;;;23.73;;
51810;SDS011;52468;40.116;18.296;2023-01-08T04:42:37;46.80;;;22.43;;
51810;SDS011;52468;40.116;18.296;2023-01-08T04:45:05;50.17;;;24.47;;
51810;SDS011;52468;40.116;18.296;2023-01-08T04:47:34;57.43;;;24.57;;
51810;SDS011;52468;40.116;18.296;2023-01-08T04:50:01;64.00;;;27.00;;
51810;SDS011;52468;40.116;18.296;2023-01-08T04:52:29;44.70;;;22.23;;
51810;SDS011;52468;40.116;18.296;2023-01-08T04:54:57;59.30;;;23.60;;
51810;SDS011;52468;40.116;18.296;2023-01-08T04:57:25;43.53;;;21.67;;
51810;SDS011;52468;40.116;18.296;2023-01-08T04:59:53;44.97;;;22.37;;
51810;SDS011;52468;40.116;18.296;2023-01-08T05:02:21;52.53;;;22.63;;
51810;SDS011;52468;40.116;18.296;2023-01-08T05:04:48;51.63;;;22.97;;
51810;SDS011;52468;40.116;18.296;2023-01-08T05:07:16;40.93;;;17.27;;
51810;SDS011;52468;40.116;18.296;2023-01-08T05:09:44;42.60;;;19.97;;
51810;SDS011;52468;40.116;18.296;2023-01-08T05:12:12;38.87;;;18.87;;
51810;SDS011;52468;40.116;18.296;2023-01-08T05:14:40;39.23;;;18.03;;
51810;SDS011;52468;40.116;18.296;2023-01-08T05:17:08;34.27;;;17.47;;
51810;SDS011;52468;40.116;18.296;2023-01-08T05:19:36;35.60;;;17.53;;
51810;SDS011;52468;40.116;18.296;2023-01-08T05:22:04;41.10;;;17.43;;
51810;SDS011;52468;40.116;18.296;2023-01-08T05:24:32;48.70;;;19.50;;
51810;SDS011;52468;40.116;18.296;2023-01-08T05:27:00;33.43;;;18.63;;
51810;SDS011;52468;40.116;18.296;2023-01-08T05:29:28;48.17;;;20.27;;
51810;SDS011;52468;40.116;18.296;2023-01-08T05:31:56;37.40;;;17.90;;
51810;SDS011;52468;40.116;18.296;2023-01-08T05:34:23;39.53;;;18.87;;
51810;SDS011;52468;40.116;18.296;2023-01-08T05:36:51;39.93;;;17.60;;
51810;SDS011;52468;40.116;18.296;2023-01-08T05:39:19;41.03;;;20.17;;
51810;SDS011;52468;40.116;18.296;2023-01-08T05:41:47;34.67;;;17.87;;
51810;SDS011;52468;40.116;18.296;2023-01-08T05:44:15;45.73;;;19.17;;
51810;SDS011;52468;40.116;18.296;2023-01-08T05:46:43;36.10;;;16.10;;
51810;SDS011;52468;40.116;18.296;2023-01-08T05:49:11;37.10;;;18.97;;
51810;SDS011;52468;40.116;18.296;2023-01-08T05:51:40;35.80;;;17.33;;
51810;SDS011;52468;40.116;18.296;2023-01-08T05:54:08;33.90;;;17.63;;
51810;SDS011;52468;40.116;18.296;2023-01-08T05:56:36;39.53;;;19.40;;
51810;SDS011;52468;40.116;18.296;2023-01-08T05:59:04;33.50;;;17.87;;
51810;SDS011;52468;40.116;18.296;2023-01-08T06:01:32;39.47;;;20.17;;
51810;SDS011;52468;40.116;18.296;2023-01-08T06:04:00;46.33;;;21.00;;
51810;SDS011;52468;40.116;18.296;2023-01-08T06:06:27;52.33;;;23.57;;
51810;SDS011;52468;40.116;18.296;2023-01-08T06:08:55;46.33;;;20.87;;
51810;SDS011;52468;40.116;18.296;2023-01-08T06:11:23;45.07;;;21.37;;
51810;SDS011;52468;40.116;18.296;2023-01-08T06:13:52;43.07;;;21.80;;
51810;SDS011;52468;40.116;18.296;2023-01-08T06:16:20;45.70;;;23.43;;
51810;SDS011;52468;40.116;18.296;2023-01-08T06:18:48;50.93;;;22.80;;
51810;SDS011;52468;40.116;18.296;2023-01-08T06:21:16;47.93;;;22.20;;
51810;SDS011;52468;40.116;18.296;2023-01-08T06:23:44;51.97;;;24.20;;
51810;SDS011;52468;40.116;18.296;2023-01-08T06:26:12;49.13;;;22.60;;
51810;SDS011;52468;40.116;18.296;2023-01-08T06:28:40;45.80;;;25.63;;
51810;SDS011;52468;40.116;18.296;2023-01-08T06:31:08;53.73;;;25.63;;
51810;SDS011;52468;40.116;18.296;2023-01-08T06:33:36;45.90;;;20.83;;
51810;SDS011;52468;40.116;18.296;2023-01-08T06:36:04;45.57;;;20.83;;
51810;SDS011;52468;40.116;18.296;2023-01-08T06:38:32;37.90;;;16.13;;
51810;SDS011;52468;40.116;18.296;2023-01-08T06:41:05;37.47;;;14.57;;
51810;SDS011;52468;40.116;18.296;2023-01-08T06:43:35;30.05;;;15.75;;
51810;SDS011;52468;40.116;18.296;2023-01-08T06:46:04;33.90;;;14.43;;
51810;SDS011;52468;40.116;18.296;2023-01-08T06:48:33;39.83;;;16.40;;
51810;SDS011;52468;40.116;18.296;2023-01-08T06:51:02;28.87;;;14.43;;
51810;SDS011;52468;40.116;18.296;2023-01-08T06:53:31;27.87;;;14.43;;
51810;SDS011;52468;40.116;18.296;2023-01-08T06:55:59;28.20;;;14.87;;
51810;SDS011;52468;40.116;18.296;2023-01-08T06:58:28;35.50;;;18.73;;
51810;SDS011;52468;40.116;18.296;2023-01-08T07:00:56;32.97;;;16.60;;
51810;SDS011;52468;40.116;18.296;2023-01-08T07:03:25;27.37;;;14.97;;
51810;SDS011;52468;40.116;18.296;2023-01-08T07:05:53;24.73;;;14.53;;
51810;SDS011;52468;40.116;18.296;2023-01-08T07:08:22;29.10;;;14.10;;
51810;SDS011;52468;40.116;18.296;2023-01-08T07:10:50;26.83;;;15.70;;
51810;SDS011;52468;40.116;18.296;2023-01-08T07:13:18;32.60;;;17.60;;
51810;SDS011;52468;40.116;18.296;2023-01-08T07:15:47;31.80;;;18.50;;
51810;SDS011;52468;40.116;18.296;2023-01-08T07:18:15;33.70;;;18.20;;
51810;SDS011;52468;40.116;18.296;2023-01-08T07:20:43;35.20;;;18.53;;
51810;SDS011;52468;40.116;18.296;2023-01-08T07:23:10;34.23;;;20.50;;
51810;SDS011;52468;40.116;18.296;2023-01-08T07:25:38;36.63;;;19.03;;
51810;SDS011;52468;40.116;18.296;2023-01-08T07:28:09;33.47;;;21.20;;
51810;SDS011;52468;40.116;18.296;2023-01-08T07:30:39;31.03;;;21.43;;
51810;SDS011;52468;40.116;18.296;2023-01-08T07:33:07;42.17;;;21.93;;
51810;SDS011;52468;40.116;18.296;2023-01-08T07:35:34;34.50;;;18.77;;
51810;SDS011;52468;40.116;18.296;2023-01-08T07:38:04;33.93;;;18.67;;
51810;SDS011;52468;40.116;18.296;2023-01-08T07:40:32;31.83;;;21.43;;
51810;SDS011;52468;40.116;18.296;2023-01-08T07:43:01;30.47;;;20.50;;
51810;SDS011;52468;40.116;18.296;2023-01-08T07:45:31;34.27;;;19.27;;
51810;SDS011;52468;40.116;18.296;2023-01-08T07:47:59;37.23;;;22.53;;
51810;SDS011;52468;40.116;18.296;2023-01-08T07:50:27;36.40;;;20.97;;
51810;SDS011;52468;40.116;18.296;2023-01-08T07:52:56;34.40;;;20.57;;
51810;SDS011;52468;40.116;18.296;2023-01-08T07:55:24;40.07;;;22.70;;
51810;SDS011;52468;40.116;18.296;2023-01-08T07:57:53;42.93;;;24.80;;
51810;SDS011;52468;40.116;18.296;2023-01-08T08:00:21;44.33;;;23.90;;
51810;SDS011;52468;40.116;18.296;2023-01-08T08:02:48;50.60;;;26.53;;
51810;SDS011;52468;40.116;18.296;2023-01-08T08:05:16;52.60;;;28.20;;
51810;SDS011;52468;40.116;18.296;2023-01-08T08:07:44;56.73;;;28.87;;
51810;SDS011;52468;40.116;18.296;2023-01-08T08:10:12;53.47;;;31.23;;
51810;SDS011;52468;40.116;18.296;2023-01-08T08:12:40;59.23;;;33.77;;
51810;SDS011;52468;40.116;18.296;2023-01-08T08:15:11;56.00;;;31.90;;
51810;SDS011;52468;40.116;18.296;2023-01-08T08:17:39;51.87;;;30.47;;
51810;SDS011;52468;40.116;18.296;2023-01-08T08:20:10;63.70;;;36.20;;
51810;SDS011;52468;40.116;18.296;2023-01-08T08:22:38;73.03;;;43.20;;
51810;SDS011;52468;40.116;18.296;2023-01-08T08:25:06;71.10;;;39.73;;
51810;SDS011;52468;40.116;18.296;2023-01-08T08:27:34;85.97;;;49.77;;
51810;SDS011;52468;40.116;18.296;2023-01-08T08:30:03;103.20;;;55.03;;
51810;SDS011;52468;40.116;18.296;2023-01-08T08:32:31;103.37;;;54.30;;
51810;SDS011;52468;40.116;18.296;2023-01-08T08:34:59;89.60;;;50.77;;
51810;SDS011;52468;40.116;18.296;2023-01-08T08:37:27;88.57;;;47.40;;
51810;SDS011;52468;40.116;18.296;2023-01-08T08:39:55;89.40;;;45.97;;
51810;SDS011;52468;40.116;18.296;2023-01-08T08:42:23;84.43;;;45.43;;
51810;SDS011;52468;40.116;18.296;2023-01-08T08:44:51;79.50;;;43.53;;
51810;SDS011;52468;40.116;18.296;2023-01-08T08:47:18;65.37;;;38.93;;
51810;SDS011;52468;40.116;18.296;2023-01-08T08:49:46;73.00;;;38.23;;
51810;SDS011;52468;40.116;18.296;2023-01-08T08:52:14;67.33;;;36.73;;
51810;SDS011;52468;40.116;18.296;2023-01-08T08:54:42;57.53;;;33.77;;
51810;SDS011;52468;40.116;18.296;2023-01-08T08:57:10;59.63;;;30.10;;
51810;SDS011;52468;40.116;18.296;2023-01-08T08:59:38;60.63;;;33.07;;
51810;SDS011;52468;40.116;18.296;2023-01-08T09:02:06;61.40;;;32.17;;
51810;SDS011;52468;40.116;18.296;2023-01-08T09:04:36;59.73;;;32.67;;
51810;SDS011;52468;40.116;18.296;2023-01-08T09:07:03;54.63;;;30.13;;
51810;SDS011;52468;40.116;18.296;2023-01-08T09:09:31;56.10;;;31.97;;
51810;SDS011;52468;40.116;18.296;2023-01-08T09:11:59;51.13;;;28.90;;
51810;SDS011;52468;40.116;18.296;2023-01-08T09:14:27;56.13;;;29.23;;
51810;SDS011;52468;40.116;18.296;2023-01-08T09:16:55;65.63;;;32.20;;
51810;SDS011;52468;40.116;18.296;2023-01-08T09:19:23;55.07;;;31.73;;
51810;SDS011;52468;40.116;18.296;2023-01-08T09:21:51;54.13;;;31.83;;
51810;SDS011;52468;40.116;18.296;2023-01-08T09:24:18;43.77;;;27.83;;
51810;SDS011;52468;40.116;18.296;2023-01-08T09:26:46;46.17;;;26.10;;
51810;SDS011;52468;40.116;18.296;2023-01-08T09:29:14;42.17;;;23.47;;
51810;SDS011;52468;40.116;18.296;2023-01-08T09:31:42;33.77;;;21.30;;
51810;SDS011;52468;40.116;18.296;2023-01-08T09:34:10;32.77;;;18.30;;
51810;SDS011;52468;40.116;18.296;2023-01-08T09:36:38;26.50;;;16.23;;
51810;SDS011;52468;40.116;18.296;2023-01-08T09:39:06;23.37;;;15.40;;
51810;SDS011;52468;40.116;18.296;2023-01-08T09:41:34;27.67;;;16.43;;
51810;SDS011;52468;40.116;18.296;2023-01-08T09:44:09;20.90;;;14.37;;
51810;SDS011;52468;40.116;18.296;2023-01-08T09:46:43;17.60;;;12.50;;
51810;SDS011;52468;40.116;18.296;2023-01-08T09:49:18;18.03;;;11.47;;
51810;SDS011;52468;40.116;18.296;2023-01-08T09:51:50;17.70;;;10.70;;
51810;SDS011;52468;40.116;18.296;2023-01-08T09:54:18;18.23;;;9.23;;
51810;SDS011;52468;40.116;18.296;2023-01-08T09:56:50;13.20;;;9.20;;
51810;SDS011;52468;40.116;18.296;2023-01-08T09:59:19;13.50;;;9.10;;
51810;SDS011;52468;40.116;18.296;2023-01-08T10:01:48;12.60;;;8.53;;
51810;SDS011;52468;40.116;18.296;2023-01-08T10:04:22;9.23;;;6.63;;
51810;SDS011;52468;40.116;18.296;2023-01-08T10:06:57;9.23;;;6.07;;
51810;SDS011;52468;40.116;18.296;2023-01-08T10:09:29;9.90;;;7.00;;
51810;SDS011;52468;40.116;18.296;2023-01-08T10:12:00;9.30;;;6.60;;
51810;SDS011;52468;40.116;18.296;2023-01-08T10:14:37;7.40;;;5.87;;
51810;SDS011;52468;40.116;18.296;2023-01-08T10:20:00;16.43;;;10.20;;
51810;SDS011;52468;40.116;18.296;2023-01-08T10:22:30;11.67;;;7.53;;
51810;SDS011;52468;40.116;18.296;2023-01-08T10:27:46;6.83;;;5.70;;
51810;SDS011;52468;40.116;18.296;2023-01-08T10:30:17;8.13;;;4.90;;
51810;SDS011;52468;40.116;18.296;2023-01-08T10:32:50;6.77;;;5.47;;
51810;SDS011;52468;40.116;18.296;2023-01-08T10:35:31;9.07;;;6.87;;
51810;SDS011;52468;40.116;18.296;2023-01-08T10:38:01;7.57;;;4.67;;
51810;SDS011;52468;40.116;18.296;2023-01-08T10:43:17;5.63;;;4.00;;
51810;SDS011;52468;40.116;18.296;2023-01-08T10:45:55;6.97;;;4.07;;
51810;SDS011;52468;40.116;18.296;2023-01-08T10:48:30;5.37;;;3.90;;
51810;SDS011;52468;40.116;18.296;2023-01-08T10:51:14;6.43;;;4.90;;
51810;SDS011;52468;40.116;18.296;2023-01-08T10:53:48;6.80;;;4.40;;
51810;SDS011;52468;40.116;18.296;2023-01-08T10:56:20;4.33;;;3.77;;
51810;SDS011;52468;40.116;18.296;2023-01-08T10:58:50;8.88;;;4.95;;
51810;SDS011;52468;40.116;18.296;2023-01-08T11:01:22;5.13;;;4.23;;
51810;SDS011;52468;40.116;18.296;2023-01-08T11:03:55;8.63;;;5.03;;
51810;SDS011;52468;40.116;18.296;2023-01-08T11:06:26;6.77;;;5.00;;
51810;SDS011;52468;40.116;18.296;2023-01-08T11:08:58;5.57;;;3.73;;
51810;SDS011;52468;40.116;18.296;2023-01-08T11:11:34;4.40;;;2.90;;
51810;SDS011;52468;40.116;18.296;2023-01-08T11:16:53;4.30;;;3.33;;
51810;SDS011;52468;40.116;18.296;2023-01-08T11:19:26;7.27;;;3.93;;
51810;SDS011;52468;40.116;18.296;2023-01-08T11:22:00;9.60;;;6.10;;
51810;SDS011;52468;40.116;18.296;2023-01-08T11:24:36;4.57;;;3.30;;
51810;SDS011;52468;40.116;18.296;2023-01-08T11:29:49;5.97;;;3.60;;
51810;SDS011;52468;40.116;18.296;2023-01-08T11:32:36;9.23;;;4.43;;
51810;SDS011;52468;40.116;18.296;2023-01-08T11:35:28;6.30;;;4.30;;
51810;SDS011;52468;40.116;18.296;2023-01-08T11:38:02;4.97;;;3.47;;
51810;SDS011;52468;40.116;18.296;2023-01-08T11:40:37;5.07;;;3.57;;
51810;SDS011;52468;40.116;18.296;2023-01-08T11:43:28;4.37;;;3.07;;
51810;SDS011;52468;40.116;18.296;2023-01-08T11:56:37;6.37;;;4.13;;
51810;SDS011;52468;40.116;18.296;2023-01-08T11:59:20;4.60;;;3.87;;
51810;SDS011;52468;40.116;18.296;2023-01-08T12:07:28;5.23;;;3.83;;
51810;SDS011;52468;40.116;18.296;2023-01-08T12:10:13;6.00;;;3.40;;
51810;SDS011;52468;40.116;18.296;2023-01-08T12:21:37;6.83;;;3.90;;
51810;SDS011;52468;40.116;18.296;2023-01-08T12:30:36;6.07;;;4.73;;
51810;SDS011;52468;40.116;18.296;2023-01-08T12:33:51;8.03;;;6.00;;
51810;SDS011;52468;40.116;18.296;2023-01-08T12:36:07;7.03;;;5.87;;
51810;SDS011;52468;40.116;18.296;2023-01-08T12:38:43;7.90;;;5.13;;
51810;SDS011;52468;40.116;18.296;2023-01-08T12:41:17;12.37;;;7.63;;
51810;SDS011;52468;40.116;18.296;2023-01-08T12:43:59;13.13;;;8.10;;
51810;SDS011;52468;40.116;18.296;2023-01-08T12:46:37;12.60;;;7.30;;
51810;SDS011;52468;40.116;18.296;2023-01-08T12:51:58;9.30;;;7.37;;
51810;SDS011;52468;40.116;18.296;2023-01-08T13:07:51;11.37;;;6.80;;
51810;SDS011;52468;40.116;18.296;2023-01-08T13:13:06;7.13;;;4.60;;
51810;SDS011;52468;40.116;18.296;2023-01-08T13:15:48;6.20;;;4.20;;
51810;SDS011;52468;40.116;18.296;2023-01-08T13:18:17;5.40;;;4.23;;
51810;SDS011;52468;40.116;18.296;2023-01-08T13:20:56;5.83;;;4.43;;
51810;SDS011;52468;40.116;18.296;2023-01-08T13:23:29;6.53;;;4.73;;
51810;SDS011;52468;40.116;18.296;2023-01-08T13:26:02;6.77;;;4.23;;
51810;SDS011;52468;40.116;18.296;2023-01-08T13:33:48;9.50;;;6.78;;
51810;SDS011;52468;40.116;18.296;2023-01-08T13:36:22;8.38;;;5.28;;
51810;SDS011;52468;40.116;18.296;2023-01-08T13:41:40;6.25;;;5.47;;
51810;SDS011;52468;40.116;18.296;2023-01-08T13:46:55;6.17;;;4.50;;
51810;SDS011;52468;40.116;18.296;2023-01-08T13:52:03;6.83;;;4.10;;
51810;SDS011;52468;40.116;18.296;2023-01-08T13:54:32;5.20;;;3.77;;
51810;SDS011;52468;40.116;18.296;2023-01-08T13:57:05;10.18;;;7.13;;
51810;SDS011;52468;40.116;18.296;2023-01-08T14:02:20;7.05;;;3.85;;
51810;SDS011;52468;40.116;18.296;2023-01-08T14:04:51;5.37;;;3.63;;
51810;SDS011;52468;40.116;18.296;2023-01-08T14:07:19;5.60;;;4.10;;
51810;SDS011;52468;40.116;18.296;2023-01-08T14:09:49;8.40;;;4.90;;
51810;SDS011;52468;40.116;18.296;2023-01-08T14:12:21;5.03;;;3.47;;
51810;SDS011;52468;40.116;18.296;2023-01-08T14:14:54;5.25;;;3.97;;
51810;SDS011;52468;40.116;18.296;2023-01-08T14:17:29;4.43;;;3.40;;
51810;SDS011;52468;40.116;18.296;2023-01-08T14:19:58;5.70;;;4.20;;
51810;SDS011;52468;40.116;18.296;2023-01-08T14:22:28;5.87;;;4.40;;
51810;SDS011;52468;40.116;18.296;2023-01-08T14:25:03;6.88;;;4.78;;
51810;SDS011;52468;40.116;18.296;2023-01-08T14:27:33;5.17;;;3.87;;
51810;SDS011;52468;40.116;18.296;2023-01-08T14:30:01;5.10;;;4.07;;
51810;SDS011;52468;40.116;18.296;2023-01-08T14:32:42;6.47;;;4.33;;
51810;SDS011;52468;40.116;18.296;2023-01-08T14:35:13;5.70;;;4.23;;
51810;SDS011;52468;40.116;18.296;2023-01-08T14:37:44;11.70;;;4.50;;
51810;SDS011;52468;40.116;18.296;2023-01-08T14:40:12;7.40;;;4.60;;
51810;SDS011;52468;40.116;18.296;2023-01-08T14:42:42;7.23;;;4.70;;
51810;SDS011;52468;40.116;18.296;2023-01-08T14:47:58;9.17;;;6.10;;
51810;SDS011;52468;40.116;18.296;2023-01-08T14:50:35;10.33;;;6.70;;
51810;SDS011;52468;40.116;18.296;2023-01-08T14:55:45;6.93;;;4.80;;
51810;SDS011;52468;40.116;18.296;2023-01-08T14:58:16;7.97;;;5.43;;
51810;SDS011;52468;40.116;18.296;2023-01-08T15:00:52;10.88;;;6.63;;
51810;SDS011;52468;40.116;18.296;2023-01-08T15:06:04;10.10;;;5.77;;
51810;SDS011;52468;40.116;18.296;2023-01-08T15:08:35;9.73;;;5.77;;
51810;SDS011;52468;40.116;18.296;2023-01-08T15:13:45;11.00;;;6.67;;
51810;SDS011;52468;40.116;18.296;2023-01-08T15:16:27;8.10;;;6.20;;
51810;SDS011;52468;40.116;18.296;2023-01-08T15:19:00;52.83;;;26.80;;
51810;SDS011;52468;40.116;18.296;2023-01-08T15:21:33;20.00;;;14.77;;
51810;SDS011;52468;40.116;18.296;2023-01-08T15:24:02;11.40;;;8.63;;
51810;SDS011;52468;40.116;18.296;2023-01-08T15:26:32;15.10;;;11.83;;
51810;SDS011;52468;40.116;18.296;2023-01-08T15:29:01;15.93;;;11.40;;
51810;SDS011;52468;40.116;18.296;2023-01-08T15:31:32;16.87;;;13.73;;
51810;SDS011;52468;40.116;18.296;2023-01-08T15:34:12;14.50;;;9.93;;
51810;SDS011;52468;40.116;18.296;2023-01-08T15:36:41;20.87;;;17.43;;
51810;SDS011;52468;40.116;18.296;2023-01-08T15:39:09;12.97;;;9.47;;
51810;SDS011;52468;40.116;18.296;2023-01-08T15:41:37;12.80;;;9.70;;
51810;SDS011;52468;40.116;18.296;2023-01-08T15:44:25;36.93;;;30.63;;
51810;SDS011;52468;40.116;18.296;2023-01-08T15:46:53;18.80;;;14.07;;
51810;SDS011;52468;40.116;18.296;2023-01-08T15:49:21;17.57;;;14.80;;
51810;SDS011;52468;40.116;18.296;2023-01-08T15:51:49;9.53;;;7.57;;
51810;SDS011;52468;40.116;18.296;2023-01-08T15:54:19;12.73;;;7.60;;
51810;SDS011;52468;40.116;18.296;2023-01-08T15:56:51;13.57;;;9.60;;
51810;SDS011;52468;40.116;18.296;2023-01-08T15:59:19;13.27;;;8.53;;
51810;SDS011;52468;40.116;18.296;2023-01-08T16:01:46;75.70;;;45.77;;
51810;SDS011;52468;40.116;18.296;2023-01-08T16:04:14;115.07;;;72.00;;
51810;SDS011;52468;40.116;18.296;2023-01-08T16:06:42;150.57;;;91.50;;
51810;SDS011;52468;40.116;18.296;2023-01-08T16:09:10;140.03;;;84.47;;
51810;SDS011;52468;40.116;18.296;2023-01-08T16:11:38;63.33;;;40.20;;
51810;SDS011;52468;40.116;18.296;2023-01-08T16:14:05;45.23;;;31.73;;
51810;SDS011;52468;40.116;18.296;2023-01-08T16:16:33;41.40;;;28.23;;
51810;SDS011;52468;40.116;18.296;2023-01-08T16:19:01;58.03;;;37.97;;
51810;SDS011;52468;40.116;18.296;2023-01-08T16:21:29;84.33;;;56.60;;
51810;SDS011;52468;40.116;18.296;2023-01-08T16:23:57;68.43;;;44.83;;
51810;SDS011;52468;40.116;18.296;2023-01-08T16:26:25;61.33;;;42.07;;
51810;SDS011;52468;40.116;18.296;2023-01-08T16:28:52;36.40;;;27.97;;
51810;SDS011;52468;40.116;18.296;2023-01-08T16:31:21;38.50;;;25.63;;